Time;durP1;ratioP1;P1;durP2;ratioP2;P2;SDS_P1;SDS_P2;PMS_P1;PMS_P2;Temp;Humidity;BMP_temperature;BMP_pressure;BME280_temperature;BME280_humidity;BME280_pressure;Samples;Min_cycle;Max_cycle;Signal;HPM_P1;HPM_P2
2022/12/27 00:00:33;;;;;;;12.57;6.00;;;4.40;99.90;;;3.40;100.00;102496.41;4159813;28;20036;-69
2022/12/27 00:02:37;;;;;;;9.60;6.22;;;4.40;99.90;;;3.32;100.00;102504.53;4168571;28;20034;-69
2022/12/27 00:04:38;;;;;;;11.27;6.32;;;4.40;99.90;;;3.30;100.00;102506.38;4168366;28;20029;-69
2022/12/27 00:06:39;;;;;;;11.63;6.35;;;4.40;99.90;;;3.32;100.00;102504.53;4169744;28;20067;-69
2022/12/27 00:08:42;;;;;;;13.68;6.50;;;4.40;99.90;;;3.37;100.00;102504.38;4168493;28;20033;-69
2022/12/27 00:10:43;;;;;;;13.57;7.13;;;4.40;99.90;;;3.42;100.00;102497.16;4169596;28;20031;-69
2022/12/27 00:12:44;;;;;;;16.00;7.75;;;4.40;99.90;;;3.44;100.00;102497.94;4168028;28;20493;-69
2022/12/27 00:14:44;;;;;;;13.57;6.07;;;4.40;99.90;;;3.45;100.00;102491.81;4169414;28;20076;-69
2022/12/27 00:16:45;;;;;;;13.93;6.30;;;4.50;99.90;;;3.46;100.00;102500.50;4169618;28;20060;-69
2022/12/27 00:18:48;;;;;;;10.85;6.60;;;4.50;99.90;;;3.45;100.00;102501.41;4168331;28;20047;-69
2022/12/27 00:20:49;;;;;;;15.32;6.80;;;4.50;99.90;;;3.42;100.00;102497.16;4168033;28;20033;-69
2022/12/27 00:22:50;;;;;;;9.48;5.32;;;4.50;99.90;;;3.42;100.00;102504.16;4168299;28;20025;-69
2022/12/27 00:24:50;;;;;;;11.68;5.80;;;4.50;99.90;;;3.37;100.00;102509.56;4169356;28;20477;-69
2022/12/27 00:26:51;;;;;;;9.90;5.90;;;4.40;99.90;;;3.37;100.00;102509.56;4169443;28;20076;-69
2022/12/27 00:28:54;;;;;;;17.35;7.07;;;4.40;99.90;;;3.34;100.00;102494.88;4169261;28;20155;-69
2022/12/27 00:30:55;;;;;;;11.98;5.90;;;4.40;99.90;;;3.35;100.00;102501.81;4168276;28;20025;-69
2022/12/27 00:32:55;;;;;;;13.07;6.18;;;4.40;99.90;;;3.42;100.00;102506.75;4151726;28;20501;-69
2022/12/27 00:34:57;;;;;;;14.38;5.82;;;4.40;99.90;;;3.50;100.00;102512.47;4169242;28;20029;-69
2022/12/27 00:36:57;;;;;;;9.48;5.20;;;4.50;99.90;;;3.64;100.00;102497.06;4169191;28;20068;-69
2022/12/27 00:38:59;;;;;;;18.30;5.15;;;4.60;99.90;;;3.79;100.00;102499.00;4168379;28;20026;-69
2022/12/27 00:41:02;;;;;;;11.52;6.30;;;4.80;99.90;;;3.91;100.00;102508.88;4168072;28;20052;-69
2022/12/27 00:43:03;;;;;;;11.05;6.75;;;4.90;99.90;;;3.90;100.00;102501.94;4168910;28;20037;-69
2022/12/27 00:45:05;;;;;;;14.50;6.50;;;4.90;99.90;;;3.88;100.00;102498.56;4169213;28;20034;-69
2022/12/27 00:47:05;;;;;;;17.92;6.72;;;4.90;99.90;;;3.86;100.00;102500.38;4168136;28;20091;-69
2022/12/27 00:49:06;;;;;;;10.88;6.60;;;4.90;99.90;;;3.92;100.00;102507.94;4169286;28;20034;-69
2022/12/27 00:51:20;;;;;;;13.50;7.05;;;4.90;99.90;;;3.96;100.00;102512.13;4168999;28;20097;-70
2022/12/27 00:53:21;;;;;;;10.77;6.22;;;5.00;99.90;;;3.99;100.00;102518.97;4166271;28;20493;-70
2022/12/27 00:55:22;;;;;;;18.90;7.43;;;5.00;99.90;;;4.03;100.00;102518.75;4157577;28;20029;-70
2022/12/27 00:57:23;;;;;;;13.18;7.22;;;5.00;99.90;;;4.08;100.00;102521.16;4167569;28;20059;-70
2022/12/27 00:59:24;;;;;;;22.17;10.30;;;5.10;99.90;;;4.15;100.00;102512.13;4169022;28;20017;-70
2022/12/27 01:01:30;;;;;;;21.70;8.40;;;5.20;99.90;;;4.31;100.00;102516.53;4167583;28;20033;-70
2022/12/27 01:03:31;;;;;;;21.85;6.82;;;5.30;99.90;;;4.44;100.00;102522.03;4169001;28;20030;-69
2022/12/27 01:05:36;;;;;;;16.50;7.78;;;5.40;99.90;;;4.56;100.00;102521.44;4168817;28;20448;-69
2022/12/27 01:07:37;;;;;;;22.10;7.38;;;5.50;99.90;;;4.63;100.00;102512.38;4168803;28;20022;-70
2022/12/27 01:09:38;;;;;;;19.05;7.43;;;5.60;99.90;;;4.76;100.00;102515.22;4167537;28;20535;-69
2022/12/27 01:11:40;;;;;;;20.65;7.97;;;5.70;99.90;;;4.84;100.00;102508.69;4169048;28;20033;-69
2022/12/27 01:13:42;;;;;;;18.02;7.28;;;5.80;99.90;;;4.91;100.00;102501.41;4167443;28;20025;-69
2022/12/27 01:15:43;;;;;;;15.35;6.38;;;5.90;99.90;;;5.00;100.00;102506.16;4167315;28;20025;-70
2022/12/27 01:17:44;;;;;;;15.98;6.40;;;6.00;99.90;;;5.05;100.00;102498.94;4167533;28;20075;-69
2022/12/27 01:19:44;;;;;;;18.65;7.78;;;6.00;99.90;;;4.93;100.00;102494.31;4168940;28;20064;-69
2022/12/27 01:21:45;;;;;;;18.55;8.38;;;6.00;99.90;;;4.81;100.00;102501.00;4167551;28;20029;-70
2022/12/27 01:23:48;;;;;;;16.08;7.00;;;5.90;99.90;;;4.78;100.00;102505.56;4168718;28;20037;-69
2022/12/27 01:25:57;;;;;;;16.60;6.57;;;5.80;99.90;;;4.76;100.00;102500.41;4168412;28;20033;-69
2022/12/27 01:27:58;;;;;;;15.07;5.50;;;5.80;99.90;;;4.71;100.00;102491.09;4167755;28;20029;-70
2022/12/27 01:29:59;;;;;;;15.55;7.13;;;5.70;99.90;;;4.69;100.00;102501.63;4173992;28;20037;-70
2022/12/27 01:32:00;;;;;;;17.40;6.50;;;5.70;99.90;;;4.66;100.00;102498.34;4174381;28;20104;-69
2022/12/27 01:34:01;;;;;;;13.57;6.85;;;5.70;99.90;;;4.63;100.00;102507.13;4173939;28;20033;-70
2022/12/27 01:36:20;;;;;;;15.27;5.47;;;5.70;99.90;;;4.57;100.00;102502.22;4174333;28;20080;-70
2022/12/27 01:38:21;;;;;;;14.32;6.13;;;5.60;99.90;;;4.51;100.00;102488.63;4167385;28;20111;-69
2022/12/27 01:40:21;;;;;;;9.25;5.15;;;5.60;99.90;;;4.49;100.00;102504.34;4173965;28;20025;-69
2022/12/27 01:44:42;;;;;;;10.05;5.80;;;5.50;99.90;;;4.38;100.00;102507.50;4173889;28;20072;-69
2022/12/27 01:46:43;;;;;;;13.30;6.85;;;5.50;99.90;;;4.34;100.00;102502.47;4173932;28;20021;-69
2022/12/27 01:48:44;;;;;;;13.10;6.72;;;5.40;99.90;;;4.29;100.00;102507.09;4159388;28;20028;-70
2022/12/27 01:51:02;;;;;;;15.88;7.50;;;5.40;99.90;;;4.26;100.00;102500.25;4163959;28;20075;-69
2022/12/27 01:53:13;;;;;;;18.98;8.32;;;5.30;99.90;;;4.20;100.00;102499.69;4172868;28;20103;-69
2022/12/27 01:55:16;;;;;;;14.65;8.00;;;5.30;99.90;;;4.15;100.00;102507.72;4160208;28;20032;-69
2022/12/27 01:57:17;;;;;;;11.30;6.80;;;5.20;99.90;;;4.09;100.00;102502.78;4173351;28;20048;-69
2022/12/27 01:59:18;;;;;;;11.02;6.28;;;5.20;99.90;;;4.07;100.00;102506.38;4172508;28;20037;-69
2022/12/27 02:01:26;;;;;;;9.50;6.20;;;5.10;99.90;;;4.03;100.00;102515.28;4172556;28;20104;-70
2022/12/27 02:03:38;;;;;;;9.27;5.65;;;5.10;99.90;;;4.00;100.00;102507.59;4172818;28;20036;-69
2022/12/27 02:05:40;;;;;;;12.80;6.80;;;5.10;99.90;;;3.99;100.00;102516.34;4172214;28;20049;-70
2022/12/27 02:07:56;;;;;;;12.65;6.80;;;5.10;99.90;;;4.06;100.00;102521.19;4172634;28;20022;-70
2022/12/27 02:10:00;;;;;;;12.85;6.82;;;5.10;99.90;;;4.09;100.00;102523.66;4161308;28;20028;-69
2022/12/27 02:12:05;;;;;;;8.77;5.65;;;5.10;99.90;;;4.10;100.00;102520.16;4172562;28;20025;-69
2022/12/27 02:14:07;;;;;;;17.08;6.68;;;5.10;99.90;;;4.13;100.00;102521.75;4173759;28;20025;-69
2022/12/27 02:16:18;;;;;;;12.85;6.78;;;5.10;99.90;;;4.14;100.00;102511.25;4172268;28;20128;-69
2022/12/27 02:18:19;;;;;;;17.70;7.25;;;5.10;99.90;;;4.16;100.00;102504.19;4172498;28;20033;-70
2022/12/27 02:20:23;;;;;;;15.57;6.45;;;5.20;99.90;;;4.21;100.00;102510.03;4173718;28;20049;-69
2022/12/27 02:25:07;;;;;;;8.65;5.22;;;5.30;99.90;;;4.29;100.00;102514.91;4173755;28;20092;-69
2022/12/27 02:27:52;;;;;;;9.18;5.55;;;5.30;99.90;;;4.31;100.00;102511.31;4172334;28;20048;-69
2022/12/27 02:30:05;;;;;;;10.15;5.95;;;5.30;99.90;;;4.31;100.00;102510.47;4159940;28;20497;-69
2022/12/27 02:32:27;;;;;;;15.20;8.05;;;5.30;99.90;;;4.26;100.00;102518.53;4172554;28;20108;-70
2022/12/27 02:34:45;;;;;;;18.42;9.00;;;5.30;99.90;;;4.23;100.00;102518.69;4173730;28;20029;-69
2022/12/27 02:36:51;;;;;;;14.35;7.88;;;5.20;99.90;;;4.17;100.00;102505.03;4172657;28;20501;-69
2022/12/27 02:38:57;;;;;;;11.45;7.00;;;5.20;99.90;;;4.16;100.00;102501.59;4156360;28;20113;-69
2022/12/27 02:54:22;;;;;;;12.13;5.85;;;5.10;99.90;;;4.05;100.00;102509.09;4159884;28;20389;-69
2022/12/27 02:57:08;;;;;;;11.40;6.50;;;5.10;99.90;;;3.98;100.00;102509.41;4170732;28;20448;-69
2022/12/27 03:05:12;;;;;;;10.35;5.80;;;5.00;99.90;;;3.88;100.00;102506.41;4170688;28;20040;-69
2022/12/27 03:07:38;;;;;;;16.35;6.43;;;5.00;99.90;;;3.89;100.00;102508.09;4169448;28;20096;-70
2022/12/27 03:18:14;;;;;;;10.32;6.13;;;4.90;99.90;;;3.89;100.00;102508.09;4169457;28;20052;-70
2022/12/27 03:27:29;;;;;;;9.68;6.25;;;5.00;99.90;;;3.92;100.00;102498.34;4169031;28;20028;-69
2022/12/27 03:34:32;;;;;;;10.13;5.47;;;5.00;99.90;;;3.96;100.00;102487.75;4169230;28;20404;-69
2022/12/27 03:39:23;;;;;;;9.07;5.03;;;5.10;99.90;;;4.12;100.00;102494.81;4169226;28;20068;-69
2022/12/27 03:43:54;;;;;;;11.68;6.25;;;5.20;99.90;;;4.21;100.00;102499.59;4169656;28;20056;-69
2022/12/27 03:48:33;;;;;;;8.60;5.57;;;5.20;99.90;;;4.23;100.00;102491.69;4168916;28;20037;-69
2022/12/27 03:50:51;;;;;;;9.13;5.72;;;5.30;99.90;;;4.24;100.00;102490.78;4168957;28;20030;-70
2022/12/27 03:53:40;;;;;;;10.23;5.93;;;5.30;99.90;;;4.25;100.00;102495.06;4168526;28;20088;-69
2022/12/27 03:55:42;;;;;;;9.88;6.30;;;5.30;99.90;;;4.23;100.00;102487.34;4169943;28;20072;-69
2022/12/27 03:57:43;;;;;;;16.02;6.55;;;5.30;99.90;;;4.21;100.00;102486.53;4168412;28;20591;-69
2022/12/27 03:59:44;;;;;;;8.80;5.72;;;5.30;99.90;;;4.28;100.00;102487.94;4168781;28;20044;-69
2022/12/27 04:01:45;;;;;;;10.82;6.15;;;5.30;99.90;;;4.31;100.00;102493.03;4168404;28;20025;-69
2022/12/27 04:03:46;;;;;;;12.45;6.80;;;5.40;99.90;;;4.30;100.00;102486.09;4169594;28;20065;-69
2022/12/27 04:05:47;;;;;;;16.00;7.32;;;5.30;99.90;;;4.33;100.00;102485.94;4168444;28;20091;-69
2022/12/27 04:35:46;;;;;;;18.13;7.90;;;5.70;99.90;;;4.63;100.00;102459.28;4168148;28;20425;-70
2022/12/27 04:37:47;;;;;;;18.52;8.50;;;5.60;99.90;;;4.63;100.00;102456.66;4168009;28;20033;-69
2022/12/27 04:54:55;;;;;;;20.45;7.57;;;5.70;99.90;;;4.60;100.00;102469.88;4168010;28;20124;-69
2022/12/27 04:56:19;;;;;;;17.00;7.90;;;5.20;99.90;;;4.09;100.00;102460.19;4169268;28;20048;-69
2022/12/27 04:58:19;;;;;;;19.45;7.85;;;5.20;99.90;;;4.03;100.00;102463.94;4167431;28;20022;-69
2022/12/27 05:02:44;;;;;;;15.73;7.10;;;5.00;99.90;;;3.91;100.00;102464.50;4167949;28;20164;-69
2022/12/27 05:04:46;;;;;;;14.50;7.53;;;4.90;99.90;;;3.88;100.00;102462.84;4168306;28;20030;-69
2022/12/27 05:06:47;;;;;;;16.85;7.68;;;4.90;99.90;;;3.90;100.00;102466.25;4167756;28;20033;-69
2022/12/27 05:15:48;;;;;;;10.60;7.05;;;4.80;99.90;;;3.75;100.00;102458.28;4168050;28;20040;-69
2022/12/27 05:17:49;;;;;;;14.30;7.38;;;4.70;99.90;;;3.74;100.00;102461.78;4167392;28;20029;-69
2022/12/27 05:19:50;;;;;;;18.52;7.80;;;4.80;99.90;;;3.74;100.00;102452.22;4167661;28;20060;-69
2022/12/27 05:26:31;;;;;;;15.93;7.38;;;4.80;99.90;;;3.75;100.00;102453.91;4167700;28;20052;-69
2022/12/27 05:28:32;;;;;;;13.98;7.28;;;4.80;99.90;;;3.71;100.00;102441.91;4168692;28;20025;-69
2022/12/27 05:30:34;;;;;;;16.10;6.82;;;4.80;99.90;;;3.69;100.00;102445.50;4169016;28;20036;-69
2022/12/27 05:32:35;;;;;;;15.30;6.78;;;4.70;99.90;;;3.67;100.00;102448.22;4168746;28;20026;-69
2022/12/27 05:34:36;;;;;;;12.45;6.55;;;4.70;99.90;;;3.58;100.00;102440.81;4167355;28;20029;-69
2022/12/27 05:36:37;;;;;;;15.75;6.93;;;4.60;99.90;;;3.62;100.00;102454.53;4167302;28;20029;-69
2022/12/27 05:38:38;;;;;;;14.70;7.38;;;4.60;99.90;;;3.63;100.00;102458.84;4168469;28;20558;-69
2022/12/27 05:40:39;;;;;;;13.10;7.28;;;4.60;99.90;;;3.55;100.00;102446.16;4168674;28;20021;-69
2022/12/27 05:42:40;;;;;;;14.80;7.05;;;4.60;99.90;;;3.55;100.00;102453.13;4167280;28;20030;-69
2022/12/27 05:44:40;;;;;;;12.75;6.80;;;4.60;99.90;;;3.50;100.00;102460.28;4168398;28;20143;-69
2022/12/27 05:46:41;;;;;;;16.45;7.43;;;4.50;99.90;;;3.45;100.00;102463.13;4167179;28;20519;-69
2022/12/27 05:48:42;;;;;;;16.15;8.10;;;4.50;99.90;;;3.42;100.00;102462.41;4167270;28;20036;-69
2022/12/27 05:50:43;;;;;;;12.18;6.63;;;4.50;99.90;;;3.37;100.00;102457.41;4167377;28;20025;-69
2022/12/27 05:52:44;;;;;;;11.48;6.63;;;4.40;99.90;;;3.34;100.00;102455.75;4168466;28;20052;-69
2022/12/27 05:54:45;;;;;;;15.82;7.55;;;4.40;99.90;;;3.33;100.00;102461.06;4168372;28;20057;-69
2022/12/27 05:56:46;;;;;;;10.38;6.50;;;4.30;99.90;;;3.30;100.00;102467.25;4168247;28;20081;-69
2022/12/27 05:58:51;;;;;;;18.50;7.45;;;4.30;99.90;;;3.26;100.00;102454.41;4168583;28;20108;-69
2022/12/27 06:00:52;;;;;;;;;;;4.30;99.90;;;3.20;100.00;102458.13;4169012;28;20151;-69
2022/12/27 06:02:52;;;;;;;14.82;7.07;;;4.20;99.90;;;3.20;100.00;102459.88;4168412;28;20043;-69
2022/12/27 06:04:53;;;;;;;13.25;7.22;;;4.20;99.90;;;3.17;100.00;102457.41;4167073;28;20048;-69
2022/12/27 06:06:54;;;;;;;16.38;7.97;;;4.20;99.90;;;3.16;100.00;102459.19;4168352;28;20079;-69
2022/12/27 06:08:55;;;;;;;11.95;7.75;;;4.20;99.90;;;3.12;100.00;102452.41;4167657;28;20034;-70
2022/12/27 06:11:15;;;;;;;14.88;7.50;;;4.20;99.90;;;3.10;100.00;102459.47;4168441;28;20025;-69
2022/12/27 06:13:16;;;;;;;15.30;7.03;;;4.10;99.90;;;3.11;100.00;102463.75;4168265;28;20100;-70
2022/12/27 06:15:17;;;;;;;15.63;8.32;;;4.10;99.90;;;3.08;100.00;102458.66;4170101;28;20045;-69
2022/12/27 06:17:18;;;;;;;13.82;7.63;;;4.10;99.90;;;3.08;100.00;102471.69;4171244;28;20536;-69
2022/12/27 06:19:19;;;;;;;16.27;9.10;;;4.10;99.90;;;3.07;100.00;102471.78;4171359;28;20405;-69
2022/12/27 06:21:21;;;;;;;17.58;8.77;;;4.10;99.90;;;3.07;100.00;102470.03;4170242;28;20025;-69
2022/12/27 06:23:21;;;;;;;17.58;8.55;;;4.10;99.90;;;3.08;100.00;102470.84;4153901;28;20034;-69
2022/12/27 06:25:22;;;;;;;13.55;8.27;;;4.10;99.90;;;2.97;100.00;102455.69;4171291;28;20562;-69
2022/12/27 06:27:23;;;;;;;14.88;8.68;;;4.10;99.90;;;3.03;100.00;102462.38;4170942;28;20029;-69
2022/12/27 06:29:24;;;;;;;17.58;9.45;;;4.10;99.90;;;3.01;100.00;102459.88;4153698;28;20509;-69
2022/12/27 06:31:28;;;;;;;16.55;10.20;;;4.00;99.90;;;3.02;100.00;102461.53;4171228;28;20021;-69
2022/12/27 06:33:29;;;;;;;20.60;9.93;;;4.00;99.90;;;3.01;100.00;102470.28;4170020;28;20041;-69
2022/12/27 06:35:30;;;;;;;16.40;10.38;;;4.00;99.90;;;2.98;100.00;102465.22;4169838;28;20120;-69
2022/12/27 06:37:31;;;;;;;19.15;9.93;;;4.00;99.90;;;2.96;100.00;102461.78;4171170;28;20025;-69
2022/12/27 06:39:32;;;;;;;17.52;9.57;;;4.00;99.90;;;2.91;100.00;102458.56;4171176;28;20029;-69
2022/12/27 06:41:33;;;;;;;17.23;10.65;;;4.00;99.90;;;2.95;100.00;102465.34;4170832;28;20420;-69
2022/12/27 06:43:34;;;;;;;16.08;10.13;;;4.00;99.90;;;2.96;100.00;102453.13;4171011;28;20065;-69
2022/12/27 06:45:35;;;;;;;22.15;10.23;;;4.00;99.90;;;2.92;100.00;102460.25;4170982;28;20025;-69
2022/12/27 06:47:36;;;;;;;18.98;9.90;;;3.90;99.90;;;2.91;100.00;102458.56;4169937;28;20029;-69
2022/12/27 06:49:36;;;;;;;15.55;9.75;;;3.90;99.90;;;2.90;100.00;102462.06;4169784;28;20017;-69
2022/12/27 06:51:37;;;;;;;12.88;8.82;;;3.90;99.90;;;2.88;100.00;102463.88;4169585;28;20064;-69
2022/12/27 06:53:38;;;;;;;16.40;9.68;;;3.90;99.90;;;2.92;100.00;102470.69;4169700;28;20100;-69
2022/12/27 06:55:39;;;;;;;19.00;10.77;;;3.90;99.90;;;2.89;100.00;102472.56;4170885;28;20447;-69
2022/12/27 06:57:40;;;;;;;23.27;11.80;;;3.90;99.90;;;2.91;100.00;102474.19;4169450;28;20032;-69
2022/12/27 06:59:41;;;;;;;21.73;12.05;;;3.90;99.90;;;2.94;100.00;102470.59;4170761;28;20033;-69
2022/12/27 07:01:42;;;;;;;19.52;10.48;;;3.90;99.90;;;2.96;100.00;102469.63;4170829;28;20574;-69
2022/12/27 07:03:43;;;;;;;14.65;10.25;;;3.90;99.90;;;2.93;100.00;102471.53;4169723;28;20041;-69
2022/12/27 07:05:44;;;;;;;16.20;9.93;;;4.00;99.90;;;2.94;100.00;102468.84;4169595;28;20513;-69
2022/12/27 07:07:45;;;;;;;17.17;10.10;;;3.90;99.90;;;2.93;100.00;102468.94;4170714;28;20025;-69
2022/12/27 07:09:45;;;;;;;15.05;10.52;;;3.90;99.90;;;2.90;100.00;102463.84;4169446;28;20060;-69
2022/12/27 07:11:46;;;;;;;18.27;9.13;;;3.90;99.90;;;2.91;100.00;102461.16;4170445;28;20025;-69
2022/12/27 07:13:52;;;;;;;14.20;8.48;;;3.90;99.90;;;2.98;100.00;102472.19;4170634;28;20017;-69
2022/12/27 07:15:53;;;;;;;16.42;8.70;;;3.90;99.90;;;2.99;100.00;102466.88;4167175;28;20121;-69
2022/12/27 07:17:54;;;;;;;14.88;9.95;;;4.00;99.90;;;3.02;100.00;102468.50;4169226;28;20021;-69
2022/12/27 07:19:55;;;;;;;18.95;9.88;;;4.00;99.90;;;3.11;100.00;102471.56;4169431;28;20036;-69
2022/12/27 07:21:56;;;;;;;20.05;9.75;;;4.10;99.90;;;3.20;100.00;102471.16;4169636;28;20037;-69
2022/12/27 07:23:57;;;;;;;16.88;9.80;;;4.20;99.90;;;3.29;100.00;102480.34;4170726;28;20065;-69
2022/12/27 07:26:07;;;;;;;19.67;10.82;;;4.30;99.90;;;3.35;100.00;102467.91;4169726;28;20452;-69
2022/12/27 07:28:08;;;;;;;16.95;8.65;;;4.40;99.90;;;3.48;100.00;102475.19;4169345;28;20033;-69
2022/12/27 07:30:09;;;;;;;19.27;10.10;;;4.50;99.90;;;3.55;100.00;102477.47;4170340;28;20013;-69
2022/12/27 07:32:10;;;;;;;17.20;9.27;;;4.50;99.90;;;3.65;100.00;102473.50;4170190;28;20028;-69
2022/12/27 07:34:11;;;;;;;19.02;10.40;;;4.60;99.90;;;3.77;100.00;102477.31;4169149;28;20029;-69
2022/12/27 07:36:19;;;;;;;22.73;11.23;;;4.80;99.90;;;3.87;100.00;102482.06;4170281;28;20394;-69
2022/12/27 07:38:20;;;;;;;21.33;10.60;;;4.80;99.90;;;4.00;100.00;102477.13;4170284;28;20378;-70
2022/12/27 07:40:21;;;;;;;19.27;11.32;;;5.00;99.90;;;4.10;100.00;102480.97;4170043;28;20040;-69
2022/12/27 07:42:22;;;;;;;20.60;10.57;;;5.10;99.90;;;4.19;100.00;102477.94;4168859;28;20471;-70
2022/12/27 07:44:23;;;;;;;20.55;11.45;;;5.20;99.90;;;4.25;100.00;102475.03;4168708;28;20021;-69
2022/12/27 07:46:25;;;;;;;20.42;11.00;;;5.30;99.90;;;4.28;100.00;102474.88;4169976;28;20053;-70
2022/12/27 07:48:27;;;;;;;27.02;11.77;;;5.30;99.90;;;4.34;100.00;102476.34;4169970;28;20036;-70
2022/12/27 07:50:28;;;;;;;20.55;9.70;;;5.30;99.90;;;4.38;100.00;102478.75;4170156;28;20025;-70
2022/12/27 07:52:29;;;;;;;25.10;11.65;;;5.40;99.90;;;4.36;100.00;102479.75;4169769;28;20036;-69
2022/12/27 07:54:30;;;;;;;23.77;10.43;;;5.50;99.90;;;4.46;100.00;102497.53;4159215;28;20033;-70
2022/12/27 07:56:31;;;;;;;17.48;9.98;;;5.50;99.90;;;4.47;100.00;102491.38;4167253;28;20030;-70
2022/12/27 07:58:39;;;;;;;15.45;8.90;;;5.50;99.90;;;4.51;100.00;102486.00;4170155;28;20025;-70
2022/12/27 08:00:40;;;;;;;20.25;10.77;;;5.50;99.90;;;4.54;100.00;102480.63;4168723;28;20033;-69
2022/12/27 08:02:42;;;;;;;24.63;11.77;;;5.60;99.90;;;4.58;100.00;102471.69;4168666;28;20024;-69
2022/12/27 08:04:43;;;;;;;22.75;12.05;;;5.60;99.90;;;4.58;100.00;102456.88;4169813;28;20147;-69
2022/12/27 08:06:44;;;;;;;20.27;10.15;;;5.60;99.90;;;4.58;100.00;102450.78;4169847;28;20060;-69
2022/12/27 08:08:45;;;;;;;18.83;10.85;;;5.70;99.90;;;4.64;100.00;102455.72;4168566;28;20073;-70
2022/12/27 08:10:46;;;;;;;17.80;10.13;;;5.70;99.90;;;4.66;100.00;102446.06;4168702;28;20600;-69
2022/12/27 08:12:47;;;;;;;13.25;8.73;;;5.70;99.90;;;4.70;100.00;102460.63;4168341;28;20025;-69
2022/12/27 08:14:48;;;;;;;17.27;9.85;;;5.70;99.90;;;4.69;100.00;102453.75;4169540;28;20033;-69
2022/12/27 08:16:49;;;;;;;18.63;9.73;;;5.70;99.90;;;4.62;100.00;102461.03;4169501;28;20045;-69
2022/12/27 08:18:51;;;;;;;21.17;11.02;;;5.70;99.90;;;4.52;100.00;102456.31;4169598;28;20026;-69
2022/12/27 08:20:52;;;;;;;24.85;12.30;;;5.60;99.90;;;4.44;100.00;102457.56;4168261;28;20574;-70
2022/12/27 08:22:53;;;;;;;26.10;13.43;;;5.50;99.90;;;4.38;100.00;102460.47;4168279;28;20021;-69
2022/12/27 08:24:55;;;;;;;27.95;14.95;;;5.40;99.90;;;4.27;100.00;102457.50;4169426;28;20021;-69
2022/12/27 08:26:55;;;;;;;20.63;13.02;;;5.30;99.90;;;4.25;100.00;102472.41;4168208;28;20022;-69
2022/12/27 08:28:56;;;;;;;25.50;11.35;;;5.30;99.90;;;4.19;100.00;102479.69;4169358;28;20075;-69
2022/12/27 08:30:59;;;;;;;25.98;12.25;;;5.30;99.90;;;4.11;100.00;102476.59;4169475;28;20025;-69
2022/12/27 08:33:01;;;;;;;24.00;12.60;;;5.20;99.90;;;4.09;100.00;102475.84;4168409;28;20044;-69
2022/12/27 08:35:02;;;;;;;19.83;9.98;;;5.10;99.90;;;4.05;100.00;102472.53;4168129;28;20029;-69
2022/12/27 08:37:03;;;;;;;19.52;10.23;;;5.10;99.90;;;4.02;100.00;102472.66;4169165;28;20035;-69
2022/12/27 08:39:06;;;;;;;18.15;10.27;;;5.10;99.90;;;3.98;100.00;102470.25;4167078;28;20032;-69
2022/12/27 08:41:07;;;;;;;19.05;11.68;;;5.10;99.90;;;3.97;100.00;102477.28;4168126;28;20060;-69
2022/12/27 08:43:09;;;;;;;16.30;10.35;;;5.00;99.90;;;3.94;100.00;102471.34;4168976;28;20026;-69
2022/12/27 08:45:10;;;;;;;19.58;11.82;;;5.00;99.90;;;3.87;100.00;102468.16;4167807;28;20072;-69
2022/12/27 08:47:11;;;;;;;19.33;9.57;;;5.00;99.90;;;3.93;100.00;102475.72;4169209;28;20025;-69
2022/12/27 08:49:12;;;;;;;23.15;10.43;;;5.00;99.90;;;3.96;100.00;102469.50;4168070;28;20033;-69
2022/12/27 08:51:13;;;;;;;17.77;10.30;;;5.00;99.90;;;3.96;100.00;102474.72;4169019;28;20026;-69
2022/12/27 08:53:14;;;;;;;18.80;9.85;;;5.00;99.90;;;3.95;100.00;102465.19;4167300;28;20021;-69
2022/12/27 08:55:15;;;;;;;14.40;8.55;;;5.00;99.90;;;3.95;100.00;102471.25;4156491;28;20037;-69
2022/12/27 08:57:16;;;;;;;23.80;13.05;;;5.00;99.90;;;4.02;100.00;102466.59;4168861;28;20065;-69
2022/12/27 08:59:17;;;;;;;18.90;13.48;;;5.10;99.90;;;4.07;100.00;102465.47;4168971;28;20536;-69
2022/12/27 09:01:18;;;;;;;27.13;15.98;;;5.10;99.90;;;4.13;100.00;102467.78;4168762;28;20068;-69
2022/12/27 09:03:20;;;;;;;23.85;13.88;;;5.20;99.90;;;4.14;100.00;102466.88;4150579;28;20069;-69
2022/12/27 09:05:24;;;;;;;21.70;14.23;;;5.20;99.90;;;4.19;100.00;102472.72;4166356;28;20029;-69
2022/12/27 09:07:25;;;;;;;29.50;13.85;;;5.20;99.90;;;4.21;100.00;102478.69;4162967;28;20032;-69
2022/12/27 09:09:26;;;;;;;23.30;12.70;;;5.20;99.90;;;4.26;100.00;102476.72;4168821;28;20037;-69
2022/12/27 09:11:31;;;;;;;20.20;12.98;;;5.30;99.90;;;4.24;100.00;102462.06;4167565;28;20049;-69
2022/12/27 09:13:32;;;;;;;17.10;10.20;;;5.30;99.90;;;4.31;100.00;102469.50;4168898;28;20089;-69
2022/12/27 09:15:33;;;;;;;16.65;10.90;;;5.30;99.90;;;4.33;100.00;102474.69;4168473;28;20033;-71
2022/12/27 09:17:34;;;;;;;13.43;10.02;;;5.30;99.90;;;4.34;100.00;102476.34;4168689;28;20044;-70
2022/12/27 09:19:35;;;;;;;18.25;9.82;;;5.40;99.90;;;4.38;100.00;102476.16;4167825;28;20061;-70
2022/12/27 09:21:40;;;;;;;15.15;9.65;;;5.40;99.90;;;4.42;100.00;102472.44;4167562;28;20590;-70
2022/12/27 09:23:41;;;;;;;17.85;9.40;;;5.40;99.90;;;4.44;100.00;102464.56;4168747;28;20048;-70
2022/12/27 09:25:43;;;;;;;25.55;11.98;;;5.50;99.90;;;4.54;100.00;102468.38;4167363;28;20432;-70
2022/12/27 09:27:44;;;;;;;24.83;14.30;;;5.50;99.90;;;4.66;100.00;102474.81;4167385;28;20021;-69
2022/12/27 09:29:45;;;;;;;23.48;13.30;;;5.60;99.90;;;4.69;100.00;102480.69;4168765;28;20052;-69
2022/12/27 09:31:46;;;;;;;20.85;13.07;;;5.70;99.90;;;4.75;100.00;102490.84;4167518;28;20018;-69
2022/12/27 09:33:47;;;;;;;23.00;14.57;;;5.70;99.90;;;4.84;100.00;102500.00;4168546;28;20026;-69
2022/12/27 09:35:48;;;;;;;25.40;16.10;;;5.80;99.90;;;4.99;100.00;102494.00;4168803;28;20396;-69
2022/12/27 09:37:49;;;;;;;25.95;15.73;;;5.90;99.90;;;5.18;100.00;102494.78;4168606;28;20018;-69
2022/12/27 09:39:50;;;;;;;29.42;14.85;;;6.10;99.90;;;5.42;100.00;102501.38;4168581;28;20025;-69
2022/12/27 09:42:34;;;;;;;27.17;14.65;;;6.30;99.90;;;5.70;100.00;102503.38;4167132;28;20045;-69
2022/12/27 09:44:57;;;;;;;26.95;15.13;;;6.60;99.90;;;5.92;100.00;102508.31;4167206;28;20069;-69
2022/12/27 09:47:18;;;;;;;29.83;14.00;;;6.80;99.90;;;6.06;100.00;102496.16;4167414;28;20040;-70
2022/12/27 09:49:37;;;;;;;30.35;14.80;;;7.00;99.90;;;6.02;100.00;102493.81;4167780;28;20113;-70
2022/12/27 09:52:11;;;;;;;26.25;14.35;;;7.00;99.90;;;5.95;100.00;102502.91;4170709;28;20153;-69
2022/12/27 09:54:24;;;;;;;26.25;14.77;;;6.90;99.90;;;5.88;100.00;102501.59;4163587;28;20022;-69
2022/12/27 09:56:31;;;;;;;30.27;15.30;;;6.90;99.90;;;5.83;100.00;102493.06;4150958;28;20037;-69
2022/12/27 09:58:49;;;;;;;25.70;13.73;;;6.90;99.90;;;5.80;100.00;102495.84;4170659;28;20063;-70
2022/12/27 10:00:51;;;;;;;21.67;11.82;;;6.80;99.90;;;5.78;100.00;102497.72;4171727;28;20041;-69
2022/12/27 10:02:52;;;;;;;27.15;14.10;;;6.80;99.90;;;5.77;100.00;102498.63;4171567;28;20032;-69
2022/12/27 10:04:56;;;;;;;27.10;11.70;;;6.80;99.90;;;5.79;100.00;102499.44;4170352;28;20025;-69
2022/12/27 10:07:48;;;;;;;22.85;13.43;;;6.80;99.90;;;5.78;100.00;102492.50;4170510;28;20025;-69
2022/12/27 10:10:14;;;;;;;23.00;12.50;;;6.90;99.90;;;5.83;100.00;102493.91;4144416;28;20513;-69
2022/12/27 10:12:18;;;;;;;23.35;12.90;;;6.90;99.90;;;5.88;100.00;102493.72;4165050;28;20025;-70
2022/12/27 10:14:19;;;;;;;22.73;14.20;;;6.90;99.90;;;5.97;100.00;102495.84;4171327;28;20044;-70
2022/12/27 10:16:48;;;;;;;25.33;12.73;;;7.00;99.90;;;6.02;100.00;102488.56;4170057;28;20068;-69
2022/12/27 10:19:24;;;;;;;25.42;12.43;;;7.10;99.90;;;6.18;100.00;102489.44;4170531;28;20032;-69
2022/12/27 10:21:28;;;;;;;25.92;11.32;;;7.20;99.90;;;6.35;100.00;102489.31;4171452;28;20397;-70
2022/12/27 10:23:33;;;;;;;19.67;9.40;;;7.40;99.90;;;6.51;100.00;102492.75;4170128;28;20040;-69